Whiteford, Maryland
Current Conditions -  °F | °C
As of 9:45 AM on Sunday 21 Dec 2014 (Local Time) from KMTN Reporting Station
Broken Clouds Broken Clouds  
Wind Chill: 30°   Ceiling: 7000
Heat Index: 36°   Visibility: 10mi
Dew Point: 27°   Wind: 7mph
Humidity: 70%   Direction: 310°NW
Pressure: 30.38"   Gusts: NA
Location:  39.71°N, 76.35°W
Report Text: KMTN 211445Z 31006KT 10SM BKN070 02/M03 A3038
Loading
Personal Weather Stations






























Interactive Weather Map New forecast layout! Learn more

10-Day Weather Forecast

Advertisements
Track Severe Weather on mobile